地図

経路データ

SID SEASON NUMBER BASIN SUBBASIN NAME ISO_TIME NATURE LAT LON WMO_WIND WMO_PRES WMO_AGENCY TRACK_TYPE DIST2LAND LANDFALL IFLAG USA_AGENCY USA_ATCF_ID USA_LAT USA_LON USA_RECORD USA_STATUS USA_WIND USA_PRES USA_SSHS USA_R34_NE USA_R34_SE USA_R34_SW USA_R34_NW USA_R50_NE USA_R50_SE USA_R50_SW USA_R50_NW USA_R64_NE USA_R64_SE USA_R64_SW USA_R64_NW USA_POCI USA_ROCI USA_RMW USA_EYE TOKYO_LAT TOKYO_LON TOKYO_GRADE TOKYO_WIND TOKYO_PRES TOKYO_R50_DIR TOKYO_R50_LONG TOKYO_R50_SHORT TOKYO_R30_DIR TOKYO_R30_LONG TOKYO_R30_SHORT TOKYO_LAND CMA_LAT CMA_LON CMA_CAT CMA_WIND CMA_PRES HKO_LAT HKO_LON HKO_CAT HKO_WIND HKO_PRES NEWDELHI_LAT NEWDELHI_LON NEWDELHI_GRADE NEWDELHI_WIND NEWDELHI_PRES NEWDELHI_CI NEWDELHI_DP NEWDELHI_POCI REUNION_LAT REUNION_LON REUNION_TYPE REUNION_WIND REUNION_PRES REUNION_TNUM REUNION_CI REUNION_RMW REUNION_R34_NE REUNION_R34_SE REUNION_R34_SW REUNION_R34_NW REUNION_R50_NE REUNION_R50_SE REUNION_R50_SW REUNION_R50_NW REUNION_R64_NE REUNION_R64_SE REUNION_R64_SW REUNION_R64_NW BOM_LAT BOM_LON BOM_TYPE BOM_WIND BOM_PRES BOM_TNUM BOM_CI BOM_RMW BOM_R34_NE BOM_R34_SE BOM_R34_SW BOM_R34_NW BOM_R50_NE BOM_R50_SE BOM_R50_SW BOM_R50_NW BOM_R64_NE BOM_R64_SE BOM_R64_SW BOM_R64_NW BOM_ROCI BOM_POCI BOM_EYE BOM_POS_METHOD BOM_PRES_METHOD NADI_LAT NADI_LON NADI_CAT NADI_WIND NADI_PRES WELLINGTON_LAT WELLINGTON_LON WELLINGTON_WIND WELLINGTON_PRES DS824_LAT DS824_LON DS824_STAGE DS824_WIND DS824_PRES TD9636_LAT TD9636_LON TD9636_STAGE TD9636_WIND TD9636_PRES TD9635_LAT TD9635_LON TD9635_WIND TD9635_PRES TD9635_ROCI NEUMANN_LAT NEUMANN_LON NEUMANN_CLASS NEUMANN_WIND NEUMANN_PRES MLC_LAT MLC_LON MLC_CLASS MLC_WIND MLC_PRES USA_GUST BOM_GUST BOM_GUST_PER REUNION_GUST REUNION_GUST_PER USA_SEAHGT USA_SEARAD_NE USA_SEARAD_SE USA_SEARAD_SW USA_SEARAD_NW STORM_SPEED STORM_DIR
1869046S20071 1869 5 SI MM NOT_NAMED 1869-02-14 18:00:00 NR -19.8000 71.3000 main 1410 1377 __________O___ -1 -19.8000 71.3000 7 8 232
1869046S20071 1869 5 SI MM NOT_NAMED 1869-02-14 21:00:00 NR -20.0444 70.9636 main 1377 1344 __________P___ -1 -20.0444 70.9636 7 8 232
1869046S20071 1869 5 SI MM NOT_NAMED 1869-02-15 00:00:00 NR -20.2808 70.6412 main 1334 1312 __________P___ -1 -20.2808 70.6412 7 7 232
1869046S20071 1869 5 SI MM NOT_NAMED 1869-02-15 03:00:00 NR -20.5017 70.3482 main 1302 1281 __________P___ -1 -20.5017 70.3482 7 7 230
1869046S20071 1869 5 SI MM NOT_NAMED 1869-02-15 06:00:00 NR -20.7000 70.1000 main 1281 1260 __________O___ -1 -20.7000 70.1000 7 6 228
1869046S20071 1869 5 SI MM NOT_NAMED 1869-02-15 09:00:00 NR -20.8712 69.9064 main 1260 1250 __________P___ -1 -20.8712 69.9064 7 5 225
1869046S20071 1869 5 SI MM NOT_NAMED 1869-02-15 12:00:00 NR -21.0221 69.7544 main 1250 1230 __________P___ -1 -21.0221 69.7544 7 4 222
1869046S20071 1869 5 SI MM NOT_NAMED 1869-02-15 15:00:00 NR -21.1619 69.6252 main 1230 1220 __________P___ -1 -21.1619 69.6252 7 4 220
1869046S20071 1869 5 SI MM NOT_NAMED 1869-02-15 18:00:00 NR -21.3000 69.5000 main 1220 1210 __________O___ -1 -21.3000 69.5000 7 2 228
1869046S20071 1869 5 SI MM NOT_NAMED 1869-02-15 21:00:00 NR -21.3272 69.4276 main 1210 1210 __________P___ -1 -21.3272 69.4276 7 2 243
1869046S20071 1869 5 SI MM NOT_NAMED 1869-02-16 00:00:00 NR -21.3735 69.3436 main 1200 1191 __________P___ -1 -21.3735 69.3436 7 3 227
1869046S20071 1869 5 SI MM NOT_NAMED 1869-02-16 03:00:00 NR -21.5330 69.1881 main 1191 1163 __________P___ -1 -21.5330 69.1881 7 7 218
1869046S20071 1869 5 SI MM NOT_NAMED 1869-02-16 06:00:00 NR -21.9000 68.9000 main 1164 1122 __________O___ -1 -21.9000 68.9000 7 13 218
1869046S20071 1869 5 SI MM NOT_NAMED 1869-02-16 09:00:00 NR -22.5592 68.3272 main 1116 1075 __________P___ -1 -22.5592 68.3272 7 19 218
1869046S20071 1869 5 SI MM NOT_NAMED 1869-02-16 12:00:00 NR -23.4276 67.6248 main 1068 1040 __________P___ -1 -23.4276 67.6248 7 23 215
1869046S20071 1869 5 SI MM NOT_NAMED 1869-02-16 15:00:00 NR -24.4316 66.9089 main 1040 1032 __________P___ -1 -24.4316 66.9089 7 24 210
1869046S20071 1869 5 SI MM NOT_NAMED 1869-02-16 18:00:00 NR -25.5000 66.3000 main 1041 1039 __________O___ -1 -25.5000 66.3000 7 23 203
1869046S20071 1869 5 SI MM NOT_NAMED 1869-02-16 21:00:00 NR -26.5761 65.8929 main 1077 1077 __________P___ -1 -26.5761 65.8929 7 22 195
1869046S20071 1869 5 SI MM NOT_NAMED 1869-02-17 00:00:00 NR -27.6507 65.6622 main 1142 1142 __________P___ -1 -27.6507 65.6622 7 22 188
1869046S20071 1869 5 SI MM NOT_NAMED 1869-02-17 03:00:00 NR -28.7253 65.5510 main 1214 1214 __________P___ -1 -28.7253 65.5510 7 22 184
1869046S20071 1869 5 SI MM NOT_NAMED 1869-02-17 06:00:00 NR -29.8000 65.5000 main 1301 __________O___ -1 -29.8000 65.5000 7 22 182

IBTrACS Databaseについて

本データベースは、米国NOAAが公開する1842年以降の世界の熱帯低気圧のベストトラックデータアーカイブInternational Best Track Archive for Climate Stewardship (IBTrACS)を、ウェブで閲覧しやすい形式に変換したものです。

最終更新日:2021-10-21